Houghton County Memorial Airport
KCMX : now visible

Airfield :











YOU CAN JOIN US ON...

 
LOGIN :

Register | Disclaimer

   EN    FR    IT 

 









Legend :    VFR   Marginal VFR   IFR   Intensive IFR   Very Intensive IFR
Visi :
Ceiling :
>= 8 km
>= 3000ft
5 to 8 km
1000 to 3000 ft
1500m to 5 km
500 to 1000 ft
800 to 1500m
200 to 500 ft
< 800m
< 200 ft
Symbols :   Thunderstorms  Fog  Heavy snow  Heavy precipitations  Wind > 20 kt







- Airport Elevation : 1095 ft
- IATA code : CMX


KCMX - Houghton County Memorial

CURRENT METAR :
  • 261512Z AUTO 33015G22KT 10SM SCT011 OVC017 03/M01 A2979 RMK AO2 T00331006

EXPIRED METARs :
  • 261453Z AUTO 33012KT 10SM OVC012 03/00 A2978 RMK AO2 SLP094 T00330000 51016
  • 261437Z AUTO 30016G22KT 10SM OVC014 04/M01 A2978 RMK AO2 T00391006
  • 261353Z AUTO 30016G23KT 10SM OVC018 04/00 A2977 RMK AO2 SLP086 T00440000
  • 261253Z AUTO 30017KT 10SM OVC019 05/M01 A2975 RMK AO2 PK WND 30026/1232 SLP080 T00501006
  • 261228Z AUTO 30017KT 10SM SCT022 BKN028 05/M01 A2975 RMK AO2 T00501006

TAF KCMX
Valid from the 26 at 15:00 until the 27 at 12:00 UTC


261512Z 2615/2712 33018G30KT P6SM SCT015 BKN025
TEMPO 2615/2617 BKN015
FM262000 33013G21KT P6SM SCT030
FM270100 VRB06KT P6SM SKC
KZMP FIR / North America



MET'MAP, your aeronautical weather chart ! - Copyright ORBIFLY December 2007 - Disclaimer

ORBIFLY MET'MAP TEAM :

Programming & Development : Alexandra Zaïnal
Concept & Development : Baudouin d'Aumeries
Co-Development & Prog : Marc-Olivier Méhu
Technical & hardware support : Manuel Goepfert

Contact : metmap@orbifly.com




SOURCES & CREDITS :

   NOAA       Earth
Advisory